createdAt,value
2023-02-15T00:04:12.859Z,0.70
2023-02-15T00:09:12.804Z,0.74
2023-02-15T00:14:12.695Z,0.83
2023-02-15T00:19:12.666Z,0.88
2023-02-15T00:24:12.623Z,0.98
2023-02-15T00:29:12.527Z,1.10
2023-02-15T00:34:12.484Z,1.19
2023-02-15T00:39:12.442Z,1.24
2023-02-15T00:44:12.338Z,1.32
2023-02-15T00:49:12.295Z,1.44
2023-02-15T00:54:12.248Z,1.56
2023-02-15T00:59:12.159Z,1.62
2023-02-15T01:04:12.142Z,1.67
2023-02-15T01:09:29.051Z,1.67
2023-02-15T01:14:21.462Z,1.70
2023-02-15T01:19:21.385Z,1.74
2023-02-15T01:24:21.320Z,1.78
2023-02-15T01:29:21.263Z,1.81
2023-02-15T01:34:21.191Z,1.77
2023-02-15T01:39:21.145Z,1.84
2023-02-15T01:44:21.073Z,1.78
2023-02-15T01:49:20.965Z,1.78
2023-02-15T01:54:20.951Z,1.77
2023-02-15T01:59:20.888Z,1.70
2023-02-15T02:04:20.799Z,1.68
2023-02-15T02:09:20.734Z,1.59
2023-02-15T02:14:20.688Z,1.59
2023-02-15T02:19:20.593Z,1.56
2023-02-15T02:24:20.554Z,1.52
2023-02-15T02:29:20.483Z,1.49
2023-02-15T02:34:20.469Z,1.50
2023-02-15T02:39:20.337Z,1.45
2023-02-15T02:44:20.284Z,1.49
2023-02-15T02:49:20.223Z,1.48
2023-02-15T02:54:20.160Z,1.49
2023-02-15T02:59:20.088Z,1.48
2023-02-15T03:04:20.054Z,1.55
2023-02-15T03:09:19.981Z,1.56
2023-02-15T03:14:19.917Z,1.53
2023-02-15T03:19:19.842Z,1.55
2023-02-15T03:24:19.788Z,1.48
2023-02-15T03:29:19.700Z,1.45
2023-02-15T03:34:20.468Z,1.45
2023-02-15T03:39:19.584Z,1.41
2023-02-15T03:44:19.549Z,1.40
2023-02-15T03:49:19.470Z,1.41
2023-02-15T03:54:19.390Z,1.38
2023-02-15T03:59:19.334Z,1.40
2023-02-15T04:04:19.272Z,1.38
2023-02-15T04:09:19.192Z,1.37
2023-02-15T04:14:19.151Z,1.35
2023-02-15T04:19:19.075Z,1.31
2023-02-15T04:24:19.042Z,1.30
2023-02-15T04:29:18.931Z,1.26
2023-02-15T04:34:18.894Z,1.19
2023-02-15T04:39:18.804Z,1.16
2023-02-15T04:44:18.751Z,1.16
2023-02-15T04:49:18.709Z,1.19
2023-02-15T04:54:18.622Z,1.13
2023-02-15T04:59:18.518Z,1.12
2023-02-15T05:04:18.531Z,1.08
2023-02-15T05:09:18.412Z,1.06
2023-02-15T05:14:18.358Z,1.06
2023-02-15T05:19:34.386Z,1.06
2023-02-15T05:24:26.783Z,1.16
2023-02-15T05:29:26.744Z,1.14
2023-02-15T05:34:26.653Z,1.08
2023-02-15T05:39:26.614Z,1.01
2023-02-15T05:44:26.532Z,0.94
2023-02-15T05:49:26.525Z,0.95
2023-02-15T05:54:26.423Z,0.98
2023-02-15T05:59:26.357Z,0.99
2023-02-15T06:04:26.287Z,0.99
2023-02-15T06:09:26.247Z,0.92
2023-02-15T06:14:26.137Z,0.94
2023-02-15T06:19:27.305Z,1.01
2023-02-15T06:24:26.037Z,1.02
2023-02-15T06:29:25.996Z,0.99
2023-02-15T06:34:25.919Z,0.95
2023-02-15T06:39:25.837Z,0.98
2023-02-15T06:44:25.803Z,0.98
2023-02-15T06:49:25.720Z,1.01
2023-02-15T06:54:25.642Z,1.01
2023-02-15T06:59:25.597Z,0.92
2023-02-15T07:04:25.603Z,0.94
2023-02-15T07:09:25.497Z,0.94
2023-02-15T07:14:26.698Z,1.02
2023-02-15T07:19:25.352Z,1.10
2023-02-15T07:24:25.274Z,1.16
2023-02-15T07:29:25.196Z,1.20
2023-02-15T07:34:25.113Z,1.24
2023-02-15T07:39:25.097Z,1.28
2023-02-15T07:44:25.030Z,1.26
2023-02-15T07:49:26.308Z,1.34
2023-02-15T07:54:24.877Z,1.44
2023-02-15T07:59:24.808Z,1.49
2023-02-15T08:04:24.763Z,1.45
2023-02-15T08:09:24.690Z,1.48
2023-02-15T08:14:24.600Z,1.52
2023-02-15T08:19:24.551Z,1.59
2023-02-15T08:24:24.506Z,1.77
2023-02-15T08:29:24.485Z,4.80
2023-02-15T08:34:24.382Z,6.46
2023-02-15T08:39:24.320Z,7.45
2023-02-15T08:44:24.250Z,8.15
2023-02-15T08:49:24.217Z,8.71
2023-02-15T08:54:24.083Z,9.34
2023-02-15T08:59:24.107Z,9.43
2023-02-15T09:04:23.966Z,9.69
2023-02-15T09:09:23.945Z,10.12
2023-02-15T09:14:23.844Z,10.79
2023-02-15T09:19:23.796Z,11.26
2023-02-15T09:24:23.692Z,11.36
2023-02-15T09:29:23.689Z,11.44
2023-02-15T09:34:23.566Z,12.04
2023-02-15T09:39:23.501Z,11.78
2023-02-15T09:44:23.431Z,12.04
2023-02-15T09:49:23.380Z,11.95
2023-02-15T09:54:23.297Z,12.73
2023-02-15T09:59:23.248Z,13.25
2023-02-15T10:04:23.182Z,13.72
2023-02-15T10:09:23.133Z,13.81
2023-02-15T10:14:23.034Z,13.68
2023-02-15T10:19:23.003Z,13.70
2023-02-15T10:24:22.889Z,13.63
2023-02-15T10:29:22.852Z,14.11
2023-02-15T10:34:22.762Z,13.93
2023-02-15T10:39:22.726Z,14.43
2023-02-15T10:44:22.640Z,14.26
2023-02-15T10:49:22.573Z,14.91
2023-02-15T10:54:22.506Z,15.98
2023-02-15T10:59:22.472Z,15.86
2023-02-15T11:04:22.371Z,15.55
2023-02-15T11:09:22.290Z,15.67
2023-02-15T11:14:22.242Z,15.61
2023-02-15T11:19:22.244Z,14.48
2023-02-15T11:24:22.103Z,13.86
2023-02-15T11:29:22.075Z,13.56
2023-02-15T11:34:22.028Z,12.85
2023-02-15T11:39:21.922Z,12.53
2023-02-15T11:44:21.844Z,12.70
2023-02-15T11:49:21.784Z,13.53
2023-02-15T11:54:21.699Z,14.53
2023-02-15T11:59:22.057Z,14.35
2023-02-15T12:04:21.761Z,14.58
2023-02-15T12:09:23.533Z,15.25
2023-02-15T12:14:21.434Z,14.94
2023-02-15T12:19:21.404Z,15.33
2023-02-15T12:24:21.323Z,15.39
2023-02-15T12:29:21.274Z,15.21
2023-02-15T12:34:21.171Z,15.07
2023-02-15T12:39:21.151Z,14.65
2023-02-15T12:44:21.041Z,14.29
2023-02-15T12:49:21.340Z,13.75
2023-02-15T12:54:23.536Z,12.35
2023-02-15T12:59:23.167Z,11.27
2023-02-15T13:04:22.238Z,10.74
2023-02-15T13:09:20.776Z,10.68
2023-02-15T13:14:20.676Z,10.48
2023-02-15T13:19:20.606Z,10.41
2023-02-15T13:24:20.736Z,10.37
2023-02-15T13:29:20.479Z,10.37
2023-02-15T13:34:20.374Z,10.57
2023-02-15T13:39:20.368Z,10.63
2023-02-15T13:44:20.244Z,11.23
2023-02-15T13:49:20.215Z,11.41
2023-02-15T13:54:20.124Z,11.37
2023-02-15T13:59:20.196Z,11.22
2023-02-15T14:04:20.060Z,10.99
2023-02-15T14:09:19.955Z,11.00
2023-02-15T14:14:19.854Z,10.94
2023-02-15T14:19:19.873Z,10.93
2023-02-15T14:24:19.744Z,10.86
2023-02-15T14:29:19.665Z,10.87
2023-02-15T14:34:19.592Z,10.90
2023-02-15T14:39:19.486Z,10.93
2023-02-15T14:44:19.476Z,10.92
2023-02-15T14:49:19.387Z,10.92
2023-02-15T14:54:19.339Z,10.78
2023-02-15T14:59:19.260Z,10.69
2023-02-15T15:04:19.215Z,10.56
2023-02-15T15:09:19.142Z,10.59
2023-02-15T15:14:19.088Z,10.56
2023-02-15T15:19:19.008Z,10.51
2023-02-15T15:24:18.931Z,10.35
2023-02-15T15:29:18.859Z,10.30
2023-02-15T15:34:18.811Z,10.16
2023-02-15T15:39:18.708Z,10.07
2023-02-15T15:44:18.648Z,9.97
2023-02-15T15:49:18.602Z,9.82
2023-02-15T15:54:18.546Z,9.69
2023-02-15T15:59:18.460Z,9.58
2023-02-15T16:04:18.404Z,9.39
2023-02-15T16:09:18.358Z,9.26
2023-02-15T16:14:18.295Z,9.11
2023-02-15T16:19:18.203Z,8.97
2023-02-15T16:24:18.131Z,8.78
2023-02-15T16:29:18.055Z,8.60
2023-02-15T16:34:18.042Z,8.38
2023-02-15T16:39:17.935Z,8.20
2023-02-15T16:44:17.881Z,8.03
2023-02-15T16:49:17.808Z,7.82
2023-02-15T16:54:17.785Z,7.69
2023-02-15T16:59:17.636Z,7.51
2023-02-15T17:04:17.629Z,7.35
2023-02-15T17:09:17.526Z,7.15
2023-02-15T17:14:17.482Z,6.99
2023-02-15T17:19:17.508Z,6.87
2023-02-15T17:24:17.363Z,6.70
2023-02-15T17:29:17.252Z,6.60
2023-02-15T17:34:17.215Z,6.48
2023-02-15T17:39:17.158Z,6.35
2023-02-15T17:44:17.111Z,6.26
2023-02-15T17:49:17.012Z,6.05
2023-02-15T17:54:17.050Z,5.86
2023-02-15T17:59:16.842Z,5.75
2023-02-15T18:04:16.843Z,5.68
2023-02-15T18:09:16.750Z,5.64
2023-02-15T18:14:16.681Z,5.57
2023-02-15T18:19:16.629Z,5.54
2023-02-15T18:24:16.568Z,5.47
2023-02-15T18:29:16.460Z,5.36
2023-02-15T18:34:16.464Z,5.29
2023-02-15T18:39:16.341Z,5.15
2023-02-15T18:44:16.274Z,4.97
2023-02-15T18:49:16.230Z,4.87
2023-02-15T18:54:16.190Z,4.78
2023-02-15T18:59:16.088Z,4.74
2023-02-15T19:04:16.035Z,4.67
2023-02-15T19:09:15.977Z,4.48
2023-02-15T19:14:15.894Z,4.38
2023-02-15T19:19:16.033Z,4.31
2023-02-15T19:24:15.945Z,4.22
2023-02-15T19:29:15.895Z,4.23
2023-02-15T19:34:15.829Z,4.23
2023-02-15T19:39:15.808Z,4.14
2023-02-15T19:44:15.659Z,4.12
2023-02-15T19:49:15.599Z,4.12
2023-02-15T19:54:15.989Z,4.05
2023-02-15T19:59:15.939Z,3.95
2023-02-15T20:04:15.405Z,3.84
2023-02-15T20:09:15.157Z,3.73
2023-02-15T20:14:15.205Z,3.65
2023-02-15T20:19:15.071Z,3.50
2023-02-15T20:24:15.004Z,3.31
2023-02-15T20:29:14.940Z,3.14
2023-02-15T20:34:16.028Z,3.14
2023-02-15T20:39:15.015Z,3.14
2023-02-15T20:44:15.471Z,3.07
2023-02-15T20:49:14.730Z,3.00
2023-02-15T20:54:14.632Z,2.92
2023-02-15T20:59:15.790Z,2.86
2023-02-15T21:04:16.106Z,2.79
2023-02-15T21:09:14.590Z,2.72
2023-02-15T21:14:16.681Z,2.74
2023-02-15T21:19:14.925Z,2.74
2023-02-15T21:24:15.217Z,2.69
2023-02-15T21:29:14.421Z,2.60
2023-02-15T21:34:14.295Z,2.50
2023-02-15T21:39:14.021Z,2.29
2023-02-15T21:44:13.963Z,2.24
2023-02-15T21:49:13.902Z,2.20
2023-02-15T21:54:13.875Z,2.26
2023-02-15T21:59:13.768Z,2.22
2023-02-15T22:04:13.784Z,2.10
2023-02-15T22:09:13.684Z,2.02
2023-02-15T22:14:13.638Z,2.02
2023-02-15T22:19:13.549Z,2.02
2023-02-15T22:24:13.485Z,2.04
2023-02-15T22:29:13.389Z,1.99
2023-02-15T22:34:13.312Z,1.87
2023-02-15T22:39:13.309Z,1.76
2023-02-15T22:44:13.197Z,1.71
2023-02-15T22:49:13.125Z,1.76
2023-02-15T22:54:13.056Z,1.80
2023-02-15T22:59:12.978Z,1.78
2023-02-15T23:04:12.948Z,1.66
2023-02-15T23:09:12.865Z,1.62
2023-02-15T23:14:12.820Z,1.48
2023-02-15T23:19:12.712Z,1.35
2023-02-15T23:24:12.686Z,1.26
2023-02-15T23:29:12.614Z,1.30
2023-02-15T23:34:12.553Z,1.35
2023-02-15T23:39:12.456Z,1.37
2023-02-15T23:44:12.434Z,1.35
2023-02-15T23:49:12.431Z,1.37
2023-02-15T23:54:13.232Z,1.41
2023-02-15T23:59:12.243Z,1.40
